sensor_id;sensor_type;location;lat;lon;timestamp;temperature;humidity
28247;DHT22;66191;53.178;22.058;2023-04-03T00:01:38;1.50;87.30
28247;DHT22;66191;53.178;22.058;2023-04-03T00:04:12;1.50;87.50
28247;DHT22;66191;53.178;22.058;2023-04-03T00:06:48;1.50;87.20
28247;DHT22;66191;53.178;22.058;2023-04-03T00:09:26;1.40;87.40
28247;DHT22;66191;53.178;22.058;2023-04-03T00:12:02;1.40;88.30
28247;DHT22;66191;53.178;22.058;2023-04-03T00:17:18;1.40;88.50
28247;DHT22;66191;53.178;22.058;2023-04-03T00:19:54;1.30;88.30
28247;DHT22;66191;53.178;22.058;2023-04-03T00:22:33;1.30;88.70
28247;DHT22;66191;53.178;22.058;2023-04-03T00:25:13;1.30;89.10
28247;DHT22;66191;53.178;22.058;2023-04-03T00:27:45;1.20;88.60
28247;DHT22;66191;53.178;22.058;2023-04-03T00:30:21;1.20;88.70
28247;DHT22;66191;53.178;22.058;2023-04-03T00:32:53;1.20;88.80
28247;DHT22;66191;53.178;22.058;2023-04-03T00:35:30;1.20;89.20
28247;DHT22;66191;53.178;22.058;2023-04-03T00:38:06;1.20;88.90
28247;DHT22;66191;53.178;22.058;2023-04-03T00:40:44;1.10;88.80
28247;DHT22;66191;53.178;22.058;2023-04-03T00:43:17;1.10;89.20
28247;DHT22;66191;53.178;22.058;2023-04-03T00:45:51;1.10;89.80
28247;DHT22;66191;53.178;22.058;2023-04-03T00:48:28;1.10;89.80
28247;DHT22;66191;53.178;22.058;2023-04-03T00:51:03;1.00;89.70
28247;DHT22;66191;53.178;22.058;2023-04-03T00:53:38;1.00;90.00
28247;DHT22;66191;53.178;22.058;2023-04-03T00:56:16;1.00;90.00
28247;DHT22;66191;53.178;22.058;2023-04-03T00:58:54;1.00;90.10
28247;DHT22;66191;53.178;22.058;2023-04-03T01:01:29;1.00;90.10
28247;DHT22;66191;53.178;22.058;2023-04-03T01:04:24;0.90;90.20
28247;DHT22;66191;53.178;22.058;2023-04-03T01:07:04;0.90;90.30
28247;DHT22;66191;53.178;22.058;2023-04-03T01:09:38;0.90;90.10
28247;DHT22;66191;53.178;22.058;2023-04-03T01:12:23;0.90;90.30
28247;DHT22;66191;53.178;22.058;2023-04-03T01:14:59;0.90;90.30
28247;DHT22;66191;53.178;22.058;2023-04-03T01:17:39;0.90;90.30
28247;DHT22;66191;53.178;22.058;2023-04-03T01:23:12;0.80;90.40
28247;DHT22;66191;53.178;22.058;2023-04-03T01:25:50;0.80;90.30
28247;DHT22;66191;53.178;22.058;2023-04-03T01:28:28;0.70;90.50
28247;DHT22;66191;53.178;22.058;2023-04-03T01:31:02;0.70;90.60
28247;DHT22;66191;53.178;22.058;2023-04-03T01:33:49;0.70;90.70
28247;DHT22;66191;53.178;22.058;2023-04-03T01:36:26;0.70;90.50
28247;DHT22;66191;53.178;22.058;2023-04-03T01:39:05;0.70;90.60
28247;DHT22;66191;53.178;22.058;2023-04-03T01:41:43;0.70;90.90
28247;DHT22;66191;53.178;22.058;2023-04-03T01:44:24;0.60;90.80
28247;DHT22;66191;53.178;22.058;2023-04-03T01:47:01;0.60;91.00
28247;DHT22;66191;53.178;22.058;2023-04-03T01:49:37;0.60;91.10
28247;DHT22;66191;53.178;22.058;2023-04-03T01:52:11;0.50;91.30
28247;DHT22;66191;53.178;22.058;2023-04-03T01:54:44;0.50;91.10
28247;DHT22;66191;53.178;22.058;2023-04-03T01:57:23;0.50;91.30
28247;DHT22;66191;53.178;22.058;2023-04-03T01:59:59;0.50;91.50
28247;DHT22;66191;53.178;22.058;2023-04-03T02:02:40;0.40;91.50
28247;DHT22;66191;53.178;22.058;2023-04-03T02:05:23;0.40;91.50
28247;DHT22;66191;53.178;22.058;2023-04-03T02:07:57;0.40;91.60
28247;DHT22;66191;53.178;22.058;2023-04-03T02:10:33;0.30;91.60
28247;DHT22;66191;53.178;22.058;2023-04-03T02:13:09;0.30;91.70
28247;DHT22;66191;53.178;22.058;2023-04-03T02:15:45;0.30;91.70
28247;DHT22;66191;53.178;22.058;2023-04-03T02:18:18;0.20;91.90
28247;DHT22;66191;53.178;22.058;2023-04-03T02:20:55;0.20;92.00
28247;DHT22;66191;53.178;22.058;2023-04-03T02:23:34;0.10;92.20
28247;DHT22;66191;53.178;22.058;2023-04-03T02:26:08;0.00;92.40
28247;DHT22;66191;53.178;22.058;2023-04-03T02:28:46;0.00;92.40
28247;DHT22;66191;53.178;22.058;2023-04-03T02:31:21;0.00;92.60
28247;DHT22;66191;53.178;22.058;2023-04-03T02:33:56;0.00;92.80
28247;DHT22;66191;53.178;22.058;2023-04-03T02:36:32;-0.10;92.80
28247;DHT22;66191;53.178;22.058;2023-04-03T02:39:10;-0.10;92.90
28247;DHT22;66191;53.178;22.058;2023-04-03T02:41:50;-0.10;93.00
28247;DHT22;66191;53.178;22.058;2023-04-03T02:44:27;-0.10;93.10
28247;DHT22;66191;53.178;22.058;2023-04-03T02:47:06;-0.10;93.30
28247;DHT22;66191;53.178;22.058;2023-04-03T02:49:40;-0.10;93.40
28247;DHT22;66191;53.178;22.058;2023-04-03T02:52:18;-0.20;93.40
28247;DHT22;66191;53.178;22.058;2023-04-03T02:54:52;-0.20;93.60
28247;DHT22;66191;53.178;22.058;2023-04-03T02:57:25;-0.20;93.90
28247;DHT22;66191;53.178;22.058;2023-04-03T03:00:04;-0.30;93.70
28247;DHT22;66191;53.178;22.058;2023-04-03T03:02:44;-0.30;93.80
28247;DHT22;66191;53.178;22.058;2023-04-03T03:05:17;-0.30;93.90
28247;DHT22;66191;53.178;22.058;2023-04-03T03:07:58;-0.30;93.90
28247;DHT22;66191;53.178;22.058;2023-04-03T03:10:33;-0.30;93.90
28247;DHT22;66191;53.178;22.058;2023-04-03T03:13:08;-0.30;94.00
28247;DHT22;66191;53.178;22.058;2023-04-03T03:15:42;-0.40;94.10
28247;DHT22;66191;53.178;22.058;2023-04-03T03:18:18;-0.30;94.10
28247;DHT22;66191;53.178;22.058;2023-04-03T03:20:51;-0.40;94.10
28247;DHT22;66191;53.178;22.058;2023-04-03T03:23:30;-0.40;94.20
28247;DHT22;66191;53.178;22.058;2023-04-03T03:26:09;-0.40;94.30
28247;DHT22;66191;53.178;22.058;2023-04-03T03:28:47;-0.40;94.20
28247;DHT22;66191;53.178;22.058;2023-04-03T03:31:21;-0.40;94.40
28247;DHT22;66191;53.178;22.058;2023-04-03T03:33:58;-0.40;94.30
28247;DHT22;66191;53.178;22.058;2023-04-03T03:36:33;-0.40;94.30
28247;DHT22;66191;53.178;22.058;2023-04-03T03:39:12;-0.40;94.10
28247;DHT22;66191;53.178;22.058;2023-04-03T03:41:49;-0.40;94.20
28247;DHT22;66191;53.178;22.058;2023-04-03T03:44:22;-0.40;94.30
28247;DHT22;66191;53.178;22.058;2023-04-03T03:47:00;-0.40;94.10
28247;DHT22;66191;53.178;22.058;2023-04-03T03:49:41;-0.40;94.20
28247;DHT22;66191;53.178;22.058;2023-04-03T03:52:15;-0.40;94.20
28247;DHT22;66191;53.178;22.058;2023-04-03T03:54:55;-0.50;94.20
28247;DHT22;66191;53.178;22.058;2023-04-03T03:57:29;-0.50;94.20
28247;DHT22;66191;53.178;22.058;2023-04-03T04:00:06;-0.50;94.30
28247;DHT22;66191;53.178;22.058;2023-04-03T04:02:50;-0.50;94.10
28247;DHT22;66191;53.178;22.058;2023-04-03T04:05:29;-0.50;94.20
28247;DHT22;66191;53.178;22.058;2023-04-03T04:08:05;-0.50;94.30
28247;DHT22;66191;53.178;22.058;2023-04-03T04:10:42;-0.50;94.20
28247;DHT22;66191;53.178;22.058;2023-04-03T04:13:19;-0.50;94.20
28247;DHT22;66191;53.178;22.058;2023-04-03T04:15:55;-0.50;94.00
28247;DHT22;66191;53.178;22.058;2023-04-03T04:18:27;-0.50;93.90
28247;DHT22;66191;53.178;22.058;2023-04-03T04:21:03;-0.50;93.90
28247;DHT22;66191;53.178;22.058;2023-04-03T04:23:39;-0.50;93.80
28247;DHT22;66191;53.178;22.058;2023-04-03T04:26:15;-0.50;93.70
28247;DHT22;66191;53.178;22.058;2023-04-03T04:28:52;-0.50;93.90
28247;DHT22;66191;53.178;22.058;2023-04-03T04:31:26;-0.40;93.80
28247;DHT22;66191;53.178;22.058;2023-04-03T04:33:59;-0.40;93.80
28247;DHT22;66191;53.178;22.058;2023-04-03T04:36:32;-0.40;93.70
28247;DHT22;66191;53.178;22.058;2023-04-03T04:39:09;-0.40;93.60
28247;DHT22;66191;53.178;22.058;2023-04-03T04:41:48;-0.30;93.30
28247;DHT22;66191;53.178;22.058;2023-04-03T04:44:22;-0.30;93.10
28247;DHT22;66191;53.178;22.058;2023-04-03T04:46:56;-0.30;93.10
28247;DHT22;66191;53.178;22.058;2023-04-03T04:49:29;-0.30;93.10
28247;DHT22;66191;53.178;22.058;2023-04-03T04:52:04;-0.20;93.10
28247;DHT22;66191;53.178;22.058;2023-04-03T04:54:41;-0.20;93.00
28247;DHT22;66191;53.178;22.058;2023-04-03T04:57:17;-0.10;92.90
28247;DHT22;66191;53.178;22.058;2023-04-03T04:59:53;-0.10;92.60
28247;DHT22;66191;53.178;22.058;2023-04-03T05:02:29;-0.10;92.60
28247;DHT22;66191;53.178;22.058;2023-04-03T05:05:02;-0.10;92.30
28247;DHT22;66191;53.178;22.058;2023-04-03T05:07:36;-0.10;92.20
28247;DHT22;66191;53.178;22.058;2023-04-03T05:10:12;-0.10;92.20
28247;DHT22;66191;53.178;22.058;2023-04-03T05:12:49;0.00;92.20
28247;DHT22;66191;53.178;22.058;2023-04-03T05:15:23;0.10;92.00
28247;DHT22;66191;53.178;22.058;2023-04-03T05:17:58;0.10;91.90
28247;DHT22;66191;53.178;22.058;2023-04-03T05:20:33;0.20;91.70
28247;DHT22;66191;53.178;22.058;2023-04-03T05:23:06;0.30;91.50
28247;DHT22;66191;53.178;22.058;2023-04-03T05:25:41;0.40;91.60
28247;DHT22;66191;53.178;22.058;2023-04-03T05:28:21;0.40;91.40
28247;DHT22;66191;53.178;22.058;2023-04-03T05:30:57;0.50;90.80
28247;DHT22;66191;53.178;22.058;2023-04-03T05:33:39;0.50;91.10
28247;DHT22;66191;53.178;22.058;2023-04-03T05:36:17;0.50;90.70
28247;DHT22;66191;53.178;22.058;2023-04-03T05:38:56;0.50;90.90
28247;DHT22;66191;53.178;22.058;2023-04-03T05:41:30;0.60;90.40
28247;DHT22;66191;53.178;22.058;2023-04-03T05:44:07;0.70;90.50
28247;DHT22;66191;53.178;22.058;2023-04-03T05:46:46;0.60;90.00
28247;DHT22;66191;53.178;22.058;2023-04-03T05:49:22;0.70;90.30
28247;DHT22;66191;53.178;22.058;2023-04-03T05:51:57;0.70;90.30
28247;DHT22;66191;53.178;22.058;2023-04-03T05:54:33;0.80;90.60
28247;DHT22;66191;53.178;22.058;2023-04-03T05:57:15;0.80;89.80
28247;DHT22;66191;53.178;22.058;2023-04-03T05:59:53;0.80;89.70
28247;DHT22;66191;53.178;22.058;2023-04-03T06:02:28;0.80;89.80
28247;DHT22;66191;53.178;22.058;2023-04-03T06:05:03;0.90;89.40
28247;DHT22;66191;53.178;22.058;2023-04-03T06:07:43;0.90;89.10
28247;DHT22;66191;53.178;22.058;2023-04-03T06:10:20;0.90;89.30
28247;DHT22;66191;53.178;22.058;2023-04-03T06:13:01;0.90;89.40
28247;DHT22;66191;53.178;22.058;2023-04-03T06:15:39;1.00;89.50
28247;DHT22;66191;53.178;22.058;2023-04-03T06:18:12;0.90;88.40
28247;DHT22;66191;53.178;22.058;2023-04-03T06:20:46;0.90;89.60
28247;DHT22;66191;53.178;22.058;2023-04-03T06:23:28;0.90;89.60
28247;DHT22;66191;53.178;22.058;2023-04-03T06:26:04;1.00;89.60
28247;DHT22;66191;53.178;22.058;2023-04-03T06:28:36;1.10;88.90
28247;DHT22;66191;53.178;22.058;2023-04-03T06:31:14;1.00;88.60
28247;DHT22;66191;53.178;22.058;2023-04-03T06:33:48;1.00;89.30
28247;DHT22;66191;53.178;22.058;2023-04-03T06:36:22;1.10;89.60
28247;DHT22;66191;53.178;22.058;2023-04-03T06:38:55;1.10;88.50
28247;DHT22;66191;53.178;22.058;2023-04-03T06:41:37;1.10;87.60
28247;DHT22;66191;53.178;22.058;2023-04-03T06:44:13;1.10;87.90
28247;DHT22;66191;53.178;22.058;2023-04-03T06:46:49;1.10;88.30
28247;DHT22;66191;53.178;22.058;2023-04-03T06:49:26;1.10;87.60
28247;DHT22;66191;53.178;22.058;2023-04-03T06:51:59;1.00;88.00
28247;DHT22;66191;53.178;22.058;2023-04-03T06:54:33;1.10;89.50
28247;DHT22;66191;53.178;22.058;2023-04-03T06:57:06;1.10;87.00
28247;DHT22;66191;53.178;22.058;2023-04-03T06:59:44;1.10;87.20
28247;DHT22;66191;53.178;22.058;2023-04-03T07:02:26;1.10;88.30
28247;DHT22;66191;53.178;22.058;2023-04-03T07:05:04;1.20;88.50
28247;DHT22;66191;53.178;22.058;2023-04-03T07:07:39;1.30;88.90
28247;DHT22;66191;53.178;22.058;2023-04-03T07:10:11;1.30;85.60
28247;DHT22;66191;53.178;22.058;2023-04-03T07:12:45;1.30;86.80
28247;DHT22;66191;53.178;22.058;2023-04-03T07:15:21;1.40;86.40
28247;DHT22;66191;53.178;22.058;2023-04-03T07:17:58;1.50;86.20
28247;DHT22;66191;53.178;22.058;2023-04-03T07:20:31;1.50;86.60
28247;DHT22;66191;53.178;22.058;2023-04-03T07:23:05;1.60;84.70
28247;DHT22;66191;53.178;22.058;2023-04-03T07:25:43;1.60;83.60
28247;DHT22;66191;53.178;22.058;2023-04-03T07:28:25;1.60;83.80
28247;DHT22;66191;53.178;22.058;2023-04-03T07:31:03;1.70;83.20
28247;DHT22;66191;53.178;22.058;2023-04-03T07:33:41;1.70;84.90
28247;DHT22;66191;53.178;22.058;2023-04-03T07:36:15;1.70;81.30
28247;DHT22;66191;53.178;22.058;2023-04-03T07:38:51;1.70;81.80
28247;DHT22;66191;53.178;22.058;2023-04-03T07:41:23;1.70;82.00
28247;DHT22;66191;53.178;22.058;2023-04-03T07:43:58;1.70;81.80
28247;DHT22;66191;53.178;22.058;2023-04-03T07:46:31;1.80;80.60
28247;DHT22;66191;53.178;22.058;2023-04-03T07:49:08;1.80;81.80
28247;DHT22;66191;53.178;22.058;2023-04-03T07:51:41;1.80;82.30
28247;DHT22;66191;53.178;22.058;2023-04-03T07:54:15;1.90;82.40
28247;DHT22;66191;53.178;22.058;2023-04-03T07:56:56;2.00;80.10
28247;DHT22;66191;53.178;22.058;2023-04-03T07:59:30;2.00;78.40
28247;DHT22;66191;53.178;22.058;2023-04-03T08:02:04;2.10;80.60
28247;DHT22;66191;53.178;22.058;2023-04-03T08:04:46;2.10;77.60
28247;DHT22;66191;53.178;22.058;2023-04-03T08:07:22;2.10;78.40
28247;DHT22;66191;53.178;22.058;2023-04-03T08:09:57;2.10;79.50
28247;DHT22;66191;53.178;22.058;2023-04-03T08:12:30;2.20;77.00
28247;DHT22;66191;53.178;22.058;2023-04-03T08:15:05;2.20;77.60
28247;DHT22;66191;53.178;22.058;2023-04-03T08:17:39;2.20;78.10
28247;DHT22;66191;53.178;22.058;2023-04-03T08:20:18;2.30;75.50
28247;DHT22;66191;53.178;22.058;2023-04-03T08:22:58;2.40;75.40
28247;DHT22;66191;53.178;22.058;2023-04-03T08:25:32;2.40;75.80
28247;DHT22;66191;53.178;22.058;2023-04-03T08:28:06;2.50;74.30
28247;DHT22;66191;53.178;22.058;2023-04-03T08:30:41;2.50;72.10
28247;DHT22;66191;53.178;22.058;2023-04-03T08:33:14;2.50;72.00
28247;DHT22;66191;53.178;22.058;2023-04-03T08:35:52;2.60;70.70
28247;DHT22;66191;53.178;22.058;2023-04-03T08:38:27;2.60;68.70
28247;DHT22;66191;53.178;22.058;2023-04-03T08:41:02;2.60;69.00
28247;DHT22;66191;53.178;22.058;2023-04-03T08:43:38;2.70;69.80
28247;DHT22;66191;53.178;22.058;2023-04-03T08:46:13;2.80;69.10
28247;DHT22;66191;53.178;22.058;2023-04-03T08:48:47;2.80;68.40
28247;DHT22;66191;53.178;22.058;2023-04-03T08:51:32;2.80;67.60
28247;DHT22;66191;53.178;22.058;2023-04-03T08:54:16;2.90;66.50
28247;DHT22;66191;53.178;22.058;2023-04-03T08:56:54;3.00;67.10
28247;DHT22;66191;53.178;22.058;2023-04-03T08:59:33;3.00;68.30
28247;DHT22;66191;53.178;22.058;2023-04-03T09:02:15;3.10;67.00
28247;DHT22;66191;53.178;22.058;2023-04-03T09:04:51;3.10;66.20
28247;DHT22;66191;53.178;22.058;2023-04-03T09:07:33;3.20;66.10
28247;DHT22;66191;53.178;22.058;2023-04-03T09:10:10;3.30;64.90
28247;DHT22;66191;53.178;22.058;2023-04-03T09:12:46;3.30;64.40
28247;DHT22;66191;53.178;22.058;2023-04-03T09:15:24;3.30;64.50
28247;DHT22;66191;53.178;22.058;2023-04-03T09:18:10;3.40;64.90
28247;DHT22;66191;53.178;22.058;2023-04-03T09:20:46;3.40;66.70
28247;DHT22;66191;53.178;22.058;2023-04-03T09:23:28;3.50;65.60
28247;DHT22;66191;53.178;22.058;2023-04-03T09:26:04;3.60;65.30
28247;DHT22;66191;53.178;22.058;2023-04-03T09:28:44;3.60;64.80
28247;DHT22;66191;53.178;22.058;2023-04-03T09:31:20;3.60;66.30
28247;DHT22;66191;53.178;22.058;2023-04-03T09:33:55;3.70;67.60
28247;DHT22;66191;53.178;22.058;2023-04-03T09:36:42;3.80;67.20
28247;DHT22;66191;53.178;22.058;2023-04-03T09:39:22;3.90;67.00
28247;DHT22;66191;53.178;22.058;2023-04-03T09:41:57;4.00;66.90
28247;DHT22;66191;53.178;22.058;2023-04-03T09:44:31;4.00;65.40
28247;DHT22;66191;53.178;22.058;2023-04-03T09:47:18;4.00;64.90
28247;DHT22;66191;53.178;22.058;2023-04-03T09:50:17;4.00;64.40
28247;DHT22;66191;53.178;22.058;2023-04-03T09:52:51;4.00;65.00
28247;DHT22;66191;53.178;22.058;2023-04-03T09:55:31;3.90;65.50
28247;DHT22;66191;53.178;22.058;2023-04-03T09:58:11;3.90;65.90
28247;DHT22;66191;53.178;22.058;2023-04-03T10:01:02;3.80;63.60
28247;DHT22;66191;53.178;22.058;2023-04-03T10:03:36;3.80;64.50
28247;DHT22;66191;53.178;22.058;2023-04-03T10:06:21;4.00;66.80
28247;DHT22;66191;53.178;22.058;2023-04-03T10:08:58;4.10;67.80
28247;DHT22;66191;53.178;22.058;2023-04-03T10:11:39;4.30;65.50
28247;DHT22;66191;53.178;22.058;2023-04-03T10:14:29;4.20;63.40
28247;DHT22;66191;53.178;22.058;2023-04-03T10:17:12;4.00;63.90
28247;DHT22;66191;53.178;22.058;2023-04-03T10:19:50;4.00;63.30
28247;DHT22;66191;53.178;22.058;2023-04-03T10:22:27;4.00;64.70
28247;DHT22;66191;53.178;22.058;2023-04-03T10:25:04;4.10;64.20
28247;DHT22;66191;53.178;22.058;2023-04-03T10:27:51;4.20;65.90
28247;DHT22;66191;53.178;22.058;2023-04-03T10:30:33;4.30;63.90
28247;DHT22;66191;53.178;22.058;2023-04-03T10:33:18;4.30;64.30
28247;DHT22;66191;53.178;22.058;2023-04-03T10:35:56;4.40;64.40
28247;DHT22;66191;53.178;22.058;2023-04-03T10:38:35;4.50;64.10
28247;DHT22;66191;53.178;22.058;2023-04-03T10:41:10;4.60;65.00
28247;DHT22;66191;53.178;22.058;2023-04-03T10:43:54;4.50;64.40
28247;DHT22;66191;53.178;22.058;2023-04-03T10:46:36;4.50;65.10
28247;DHT22;66191;53.178;22.058;2023-04-03T10:49:16;4.40;63.50
28247;DHT22;66191;53.178;22.058;2023-04-03T10:51:54;4.30;63.50
28247;DHT22;66191;53.178;22.058;2023-04-03T10:54:35;4.40;63.50
28247;DHT22;66191;53.178;22.058;2023-04-03T10:57:17;4.40;63.50
28247;DHT22;66191;53.178;22.058;2023-04-03T10:59:55;4.40;62.40
28247;DHT22;66191;53.178;22.058;2023-04-03T11:02:29;4.30;62.40
28247;DHT22;66191;53.178;22.058;2023-04-03T11:05:13;4.20;63.00
28247;DHT22;66191;53.178;22.058;2023-04-03T11:07:48;4.20;62.90
28247;DHT22;66191;53.178;22.058;2023-04-03T11:10:25;4.20;64.10
28247;DHT22;66191;53.178;22.058;2023-04-03T11:13:06;4.40;65.80
28247;DHT22;66191;53.178;22.058;2023-04-03T11:15:50;4.50;62.70
28247;DHT22;66191;53.178;22.058;2023-04-03T11:18:26;4.60;63.70
28247;DHT22;66191;53.178;22.058;2023-04-03T11:21:04;4.70;60.80
28247;DHT22;66191;53.178;22.058;2023-04-03T11:23:39;4.80;63.00
28247;DHT22;66191;53.178;22.058;2023-04-03T11:26:19;4.90;61.90
28247;DHT22;66191;53.178;22.058;2023-04-03T11:29:03;5.00;61.30
28247;DHT22;66191;53.178;22.058;2023-04-03T11:32:03;5.10;61.20
28247;DHT22;66191;53.178;22.058;2023-04-03T11:34:38;5.20;60.50
28247;DHT22;66191;53.178;22.058;2023-04-03T11:37:25;5.30;63.40
28247;DHT22;66191;53.178;22.058;2023-04-03T11:40:04;5.20;59.70
28247;DHT22;66191;53.178;22.058;2023-04-03T11:42:45;5.20;60.20
28247;DHT22;66191;53.178;22.058;2023-04-03T11:45:32;5.30;58.80
28247;DHT22;66191;53.178;22.058;2023-04-03T11:48:19;5.30;59.30
28247;DHT22;66191;53.178;22.058;2023-04-03T11:51:03;5.30;60.00
28247;DHT22;66191;53.178;22.058;2023-04-03T11:53:59;5.40;60.50
28247;DHT22;66191;53.178;22.058;2023-04-03T11:57:02;5.40;61.90
28247;DHT22;66191;53.178;22.058;2023-04-03T11:59:56;5.50;58.60
28247;DHT22;66191;53.178;22.058;2023-04-03T12:02:35;5.40;59.70
28247;DHT22;66191;53.178;22.058;2023-04-03T12:05:32;5.40;58.90
28247;DHT22;66191;53.178;22.058;2023-04-03T12:08:21;5.40;57.50
28247;DHT22;66191;53.178;22.058;2023-04-03T12:14:03;5.40;59.40
28247;DHT22;66191;53.178;22.058;2023-04-03T12:16:42;5.40;59.60
28247;DHT22;66191;53.178;22.058;2023-04-03T12:22:16;5.40;58.00
28247;DHT22;66191;53.178;22.058;2023-04-03T12:24:52;5.40;56.80
28247;DHT22;66191;53.178;22.058;2023-04-03T12:27:30;5.40;59.10
28247;DHT22;66191;53.178;22.058;2023-04-03T12:30:25;5.40;58.60
28247;DHT22;66191;53.178;22.058;2023-04-03T12:35:54;5.40;58.90
28247;DHT22;66191;53.178;22.058;2023-04-03T12:38:37;5.30;58.20
28247;DHT22;66191;53.178;22.058;2023-04-03T12:41:23;5.30;57.90
28247;DHT22;66191;53.178;22.058;2023-04-03T12:44:15;5.30;59.90
28247;DHT22;66191;53.178;22.058;2023-04-03T12:46:53;5.50;59.60
28247;DHT22;66191;53.178;22.058;2023-04-03T12:49:35;5.40;56.80
28247;DHT22;66191;53.178;22.058;2023-04-03T12:52:16;5.40;56.50
28247;DHT22;66191;53.178;22.058;2023-04-03T12:54:56;5.40;55.50
28247;DHT22;66191;53.178;22.058;2023-04-03T12:57:31;5.40;56.50
28247;DHT22;66191;53.178;22.058;2023-04-03T13:00:19;5.40;56.40
28247;DHT22;66191;53.178;22.058;2023-04-03T13:02:53;5.30;54.60
28247;DHT22;66191;53.178;22.058;2023-04-03T13:05:30;5.40;56.60
28247;DHT22;66191;53.178;22.058;2023-04-03T13:08:07;5.50;56.90
28247;DHT22;66191;53.178;22.058;2023-04-03T13:10:54;5.60;58.50
28247;DHT22;66191;53.178;22.058;2023-04-03T13:13:31;5.60;57.80
28247;DHT22;66191;53.178;22.058;2023-04-03T13:16:09;5.50;56.90
28247;DHT22;66191;53.178;22.058;2023-04-03T13:18:50;5.50;57.90
28247;DHT22;66191;53.178;22.058;2023-04-03T13:21:26;5.50;58.40
28247;DHT22;66191;53.178;22.058;2023-04-03T13:24:08;5.50;58.90
28247;DHT22;66191;53.178;22.058;2023-04-03T13:26:48;5.60;57.60
28247;DHT22;66191;53.178;22.058;2023-04-03T13:29:27;5.60;57.70
28247;DHT22;66191;53.178;22.058;2023-04-03T13:32:01;5.70;57.80
28247;DHT22;66191;53.178;22.058;2023-04-03T13:34:37;5.70;57.00
28247;DHT22;66191;53.178;22.058;2023-04-03T13:37:22;5.60;56.60
28247;DHT22;66191;53.178;22.058;2023-04-03T13:40:03;5.50;56.70
28247;DHT22;66191;53.178;22.058;2023-04-03T13:43:01;5.40;58.30
28247;DHT22;66191;53.178;22.058;2023-04-03T13:45:34;5.40;57.90
28247;DHT22;66191;53.178;22.058;2023-04-03T13:48:10;5.30;56.60
28247;DHT22;66191;53.178;22.058;2023-04-03T13:50:58;5.30;56.50
28247;DHT22;66191;53.178;22.058;2023-04-03T13:53:40;5.40;55.90
28247;DHT22;66191;53.178;22.058;2023-04-03T13:56:19;5.40;57.60
28247;DHT22;66191;53.178;22.058;2023-04-03T13:59:00;5.50;57.80
28247;DHT22;66191;53.178;22.058;2023-04-03T14:01:41;5.60;57.60
28247;DHT22;66191;53.178;22.058;2023-04-03T14:04:18;5.60;58.50
28247;DHT22;66191;53.178;22.058;2023-04-03T14:06:52;5.50;58.20
28247;DHT22;66191;53.178;22.058;2023-04-03T14:09:31;5.50;56.20
28247;DHT22;66191;53.178;22.058;2023-04-03T14:12:06;5.30;56.30
28247;DHT22;66191;53.178;22.058;2023-04-03T14:15:03;5.30;56.60
28247;DHT22;66191;53.178;22.058;2023-04-03T14:17:40;5.30;57.10
28247;DHT22;66191;53.178;22.058;2023-04-03T14:20:15;5.30;58.30
28247;DHT22;66191;53.178;22.058;2023-04-03T14:22:51;5.30;58.40
28247;DHT22;66191;53.178;22.058;2023-04-03T14:25:24;5.30;59.50
28247;DHT22;66191;53.178;22.058;2023-04-03T14:27:58;5.20;59.80
28247;DHT22;66191;53.178;22.058;2023-04-03T14:30:38;5.20;59.40
28247;DHT22;66191;53.178;22.058;2023-04-03T14:33:14;5.20;58.40
28247;DHT22;66191;53.178;22.058;2023-04-03T14:35:48;5.20;58.80
28247;DHT22;66191;53.178;22.058;2023-04-03T14:38:25;5.10;58.00
28247;DHT22;66191;53.178;22.058;2023-04-03T14:41:04;5.10;58.00
28247;DHT22;66191;53.178;22.058;2023-04-03T14:43:44;5.10;57.90
28247;DHT22;66191;53.178;22.058;2023-04-03T14:46:21;5.10;58.20
28247;DHT22;66191;53.178;22.058;2023-04-03T14:49:18;5.10;55.70
28247;DHT22;66191;53.178;22.058;2023-04-03T14:51:55;5.00;57.10
28247;DHT22;66191;53.178;22.058;2023-04-03T14:54:28;5.00;58.30
28247;DHT22;66191;53.178;22.058;2023-04-03T14:57:05;4.90;59.60
28247;DHT22;66191;53.178;22.058;2023-04-03T14:59:42;4.90;58.80
28247;DHT22;66191;53.178;22.058;2023-04-03T15:02:28;4.90;59.20
28247;DHT22;66191;53.178;22.058;2023-04-03T15:05:02;4.80;59.30
28247;DHT22;66191;53.178;22.058;2023-04-03T15:07:44;4.80;57.90
28247;DHT22;66191;53.178;22.058;2023-04-03T15:10:20;4.80;58.50
28247;DHT22;66191;53.178;22.058;2023-04-03T15:12:59;4.80;58.70
28247;DHT22;66191;53.178;22.058;2023-04-03T15:15:36;4.80;58.70
28247;DHT22;66191;53.178;22.058;2023-04-03T15:18:15;4.80;58.30
28247;DHT22;66191;53.178;22.058;2023-04-03T15:20:49;4.80;58.20
28247;DHT22;66191;53.178;22.058;2023-04-03T15:23:22;4.80;58.80
28247;DHT22;66191;53.178;22.058;2023-04-03T15:25:59;4.70;58.80
28247;DHT22;66191;53.178;22.058;2023-04-03T15:28:34;4.70;58.30
28247;DHT22;66191;53.178;22.058;2023-04-03T15:31:08;4.70;58.00
28247;DHT22;66191;53.178;22.058;2023-04-03T15:33:45;4.70;58.50
28247;DHT22;66191;53.178;22.058;2023-04-03T15:36:20;4.60;58.70
28247;DHT22;66191;53.178;22.058;2023-04-03T15:39:02;4.60;58.40
28247;DHT22;66191;53.178;22.058;2023-04-03T15:41:39;4.70;58.90
28247;DHT22;66191;53.178;22.058;2023-04-03T15:44:15;4.60;58.70
28247;DHT22;66191;53.178;22.058;2023-04-03T15:46:52;4.70;59.30
28247;DHT22;66191;53.178;22.058;2023-04-03T15:49:31;4.60;58.10
28247;DHT22;66191;53.178;22.058;2023-04-03T15:52:05;4.60;59.20
28247;DHT22;66191;53.178;22.058;2023-04-03T15:54:39;4.60;60.20
28247;DHT22;66191;53.178;22.058;2023-04-03T15:57:11;4.60;61.10
28247;DHT22;66191;53.178;22.058;2023-04-03T15:59:45;4.60;61.60
28247;DHT22;66191;53.178;22.058;2023-04-03T16:02:19;4.60;60.80
28247;DHT22;66191;53.178;22.058;2023-04-03T16:04:56;4.60;60.80
28247;DHT22;66191;53.178;22.058;2023-04-03T16:07:29;4.60;61.60
28247;DHT22;66191;53.178;22.058;2023-04-03T16:10:04;4.60;62.30
28247;DHT22;66191;53.178;22.058;2023-04-03T16:12:39;4.60;62.50
28247;DHT22;66191;53.178;22.058;2023-04-03T16:15:14;4.60;62.90
28247;DHT22;66191;53.178;22.058;2023-04-03T16:17:49;4.60;61.90
28247;DHT22;66191;53.178;22.058;2023-04-03T16:20:27;4.60;62.00
28247;DHT22;66191;53.178;22.058;2023-04-03T16:23:04;4.50;62.40
28247;DHT22;66191;53.178;22.058;2023-04-03T16:25:40;4.50;62.50
28247;DHT22;66191;53.178;22.058;2023-04-03T16:28:15;4.40;62.40
28247;DHT22;66191;53.178;22.058;2023-04-03T16:30:51;4.40;61.50
28247;DHT22;66191;53.178;22.058;2023-04-03T16:33:23;4.30;61.60
28247;DHT22;66191;53.178;22.058;2023-04-03T16:36:03;4.30;62.00
28247;DHT22;66191;53.178;22.058;2023-04-03T16:38:42;4.20;62.50
28247;DHT22;66191;53.178;22.058;2023-04-03T16:41:16;4.20;63.20
28247;DHT22;66191;53.178;22.058;2023-04-03T16:43:49;4.10;63.30
28247;DHT22;66191;53.178;22.058;2023-04-03T16:46:22;4.00;63.70
28247;DHT22;66191;53.178;22.058;2023-04-03T16:48:56;3.90;63.40